sensor_id;sensor_type;location;lat;lon;timestamp;pressure;altitude;pressure_sealevel;temperature;humidity
22206;BME280;11272;50.104;8.754;2023-05-20T00:01:33;100929.53;;;15.88;46.94
22206;BME280;11272;50.104;8.754;2023-05-20T00:03:59;100929.47;;;15.90;46.87
22206;BME280;11272;50.104;8.754;2023-05-20T00:06:24;100926.78;;;15.90;46.91
22206;BME280;11272;50.104;8.754;2023-05-20T00:08:50;100922.31;;;15.90;46.90
22206;BME280;11272;50.104;8.754;2023-05-20T00:11:16;100924.06;;;15.91;47.02
22206;BME280;11272;50.104;8.754;2023-05-20T00:13:41;100925.88;;;15.91;47.19
22206;BME280;11272;50.104;8.754;2023-05-20T00:16:07;100930.28;;;15.92;47.12
22206;BME280;11272;50.104;8.754;2023-05-20T00:18:32;100933.91;;;15.91;47.28
22206;BME280;11272;50.104;8.754;2023-05-20T00:20:58;100922.41;;;15.87;47.47
22206;BME280;11272;50.104;8.754;2023-05-20T00:23:23;100925.22;;;15.84;47.71
22206;BME280;11272;50.104;8.754;2023-05-20T00:25:49;100926.28;;;15.79;48.02
22206;BME280;11272;50.104;8.754;2023-05-20T00:28:14;100923.78;;;15.74;48.11
22206;BME280;11272;50.104;8.754;2023-05-20T00:30:40;100922.03;;;15.73;48.17
22206;BME280;11272;50.104;8.754;2023-05-20T00:33:06;100919.47;;;15.70;48.21
22206;BME280;11272;50.104;8.754;2023-05-20T00:35:32;100919.59;;;15.66;48.24
22206;BME280;11272;50.104;8.754;2023-05-20T00:37:58;100907.22;;;15.63;48.47
22206;BME280;11272;50.104;8.754;2023-05-20T00:40:24;100911.81;;;15.60;48.96
22206;BME280;11272;50.104;8.754;2023-05-20T00:42:50;100921.72;;;15.56;48.91
22206;BME280;11272;50.104;8.754;2023-05-20T00:45:16;100913.81;;;15.53;49.12
22206;BME280;11272;50.104;8.754;2023-05-20T00:47:42;100913.06;;;15.48;48.90
22206;BME280;11272;50.104;8.754;2023-05-20T00:50:08;100916.75;;;15.44;49.21
22206;BME280;11272;50.104;8.754;2023-05-20T00:52:35;100912.44;;;15.40;49.35
22206;BME280;11272;50.104;8.754;2023-05-20T00:55:01;100911.72;;;15.35;50.03
22206;BME280;11272;50.104;8.754;2023-05-20T00:57:28;100906.47;;;15.32;49.88
22206;BME280;11272;50.104;8.754;2023-05-20T00:59:53;100905.75;;;15.27;49.93
22206;BME280;11272;50.104;8.754;2023-05-20T01:02:20;100905.03;;;15.22;50.37
22206;BME280;11272;50.104;8.754;2023-05-20T01:04:46;100910.41;;;15.20;50.47
22206;BME280;11272;50.104;8.754;2023-05-20T01:07:14;100906.03;;;15.17;50.72
22206;BME280;11272;50.104;8.754;2023-05-20T01:09:40;100907.91;;;15.15;50.62
22206;BME280;11272;50.104;8.754;2023-05-20T01:12:25;100900.78;;;15.14;50.77
22206;BME280;11272;50.104;8.754;2023-05-20T01:15:00;100900.94;;;15.10;51.05
22206;BME280;11272;50.104;8.754;2023-05-20T01:17:31;100902.91;;;15.05;50.88
22206;BME280;11272;50.104;8.754;2023-05-20T01:20:02;100903.84;;;15.02;51.55
22206;BME280;11272;50.104;8.754;2023-05-20T01:22:30;100909.19;;;15.02;51.52
22206;BME280;11272;50.104;8.754;2023-05-20T01:24:56;100901.97;;;15.06;51.62
22206;BME280;11272;50.104;8.754;2023-05-20T01:27:22;100899.19;;;15.09;51.74
22206;BME280;11272;50.104;8.754;2023-05-20T01:29:50;100893.72;;;15.12;51.84
22206;BME280;11272;50.104;8.754;2023-05-20T01:32:21;100891.94;;;15.12;51.83
22206;BME280;11272;50.104;8.754;2023-05-20T01:34:49;100891.13;;;15.10;52.08
22206;BME280;11272;50.104;8.754;2023-05-20T01:37:16;100893.06;;;15.05;51.82
22206;BME280;11272;50.104;8.754;2023-05-20T01:39:43;100894.94;;;15.02;52.09
22206;BME280;11272;50.104;8.754;2023-05-20T01:42:09;100892.44;;;14.97;52.09
22206;BME280;11272;50.104;8.754;2023-05-20T01:44:36;100889.00;;;14.94;52.59
22206;BME280;11272;50.104;8.754;2023-05-20T01:47:02;100892.63;;;14.91;52.36
22206;BME280;11272;50.104;8.754;2023-05-20T01:49:28;100888.22;;;14.90;52.47
22206;BME280;11272;50.104;8.754;2023-05-20T01:51:54;100882.03;;;14.88;52.74
22206;BME280;11272;50.104;8.754;2023-05-20T01:54:20;100883.06;;;14.84;52.70
22206;BME280;11272;50.104;8.754;2023-05-20T01:56:45;100873.28;;;14.83;52.81
22206;BME280;11272;50.104;8.754;2023-05-20T01:59:11;100877.78;;;14.81;53.02
22206;BME280;11272;50.104;8.754;2023-05-20T02:01:38;100870.69;;;14.80;52.93
22206;BME280;11272;50.104;8.754;2023-05-20T02:04:04;100872.56;;;14.78;53.58
22206;BME280;11272;50.104;8.754;2023-05-20T02:06:29;100875.28;;;14.77;53.17
22206;BME280;11272;50.104;8.754;2023-05-20T02:08:55;100874.38;;;14.76;53.83
22206;BME280;11272;50.104;8.754;2023-05-20T02:11:21;100867.28;;;14.75;53.47
22206;BME280;11272;50.104;8.754;2023-05-20T02:13:49;100865.44;;;14.77;53.75
22206;BME280;11272;50.104;8.754;2023-05-20T02:16:15;100859.22;;;14.77;53.91
22206;BME280;11272;50.104;8.754;2023-05-20T02:18:41;100860.97;;;14.78;54.10
22206;BME280;11272;50.104;8.754;2023-05-20T02:21:07;100868.97;;;14.79;53.96
22206;BME280;11272;50.104;8.754;2023-05-20T02:23:33;100859.00;;;14.84;53.91
22206;BME280;11272;50.104;8.754;2023-05-20T02:25:59;100869.53;;;14.89;53.82
22206;BME280;11272;50.104;8.754;2023-05-20T02:28:25;100860.53;;;14.91;54.29
22206;BME280;11272;50.104;8.754;2023-05-20T02:30:51;100865.69;;;14.97;53.96
22206;BME280;11272;50.104;8.754;2023-05-20T02:33:18;100868.19;;;15.02;54.28
22206;BME280;11272;50.104;8.754;2023-05-20T02:35:46;100875.28;;;15.04;54.30
22206;BME280;11272;50.104;8.754;2023-05-20T02:38:12;100872.47;;;15.07;53.99
22206;BME280;11272;50.104;8.754;2023-05-20T02:40:38;100867.94;;;15.11;54.17
22206;BME280;11272;50.104;8.754;2023-05-20T02:43:04;100870.47;;;15.14;54.39
22206;BME280;11272;50.104;8.754;2023-05-20T02:45:32;100870.44;;;15.15;54.63
22206;BME280;11272;50.104;8.754;2023-05-20T02:47:58;100865.97;;;15.16;54.26
22206;BME280;11272;50.104;8.754;2023-05-20T02:50:24;100866.78;;;15.18;54.45
22206;BME280;11272;50.104;8.754;2023-05-20T02:52:50;100870.16;;;15.23;54.57
22206;BME280;11272;50.104;8.754;2023-05-20T02:55:16;100872.72;;;15.28;54.39
22206;BME280;11272;50.104;8.754;2023-05-20T02:57:42;100861.91;;;15.31;54.29
22206;BME280;11272;50.104;8.754;2023-05-20T03:00:09;100860.97;;;15.32;54.48
22206;BME280;11272;50.104;8.754;2023-05-20T03:02:35;100865.34;;;15.34;54.31
22206;BME280;11272;50.104;8.754;2023-05-20T03:05:01;100864.53;;;15.32;54.56
22206;BME280;11272;50.104;8.754;2023-05-20T03:07:28;100861.91;;;15.31;54.40
22206;BME280;11272;50.104;8.754;2023-05-20T03:09:54;100863.81;;;15.27;54.50
22206;BME280;11272;50.104;8.754;2023-05-20T03:12:20;100857.63;;;15.25;54.54
22206;BME280;11272;50.104;8.754;2023-05-20T03:14:45;100849.75;;;15.21;54.93
22206;BME280;11272;50.104;8.754;2023-05-20T03:17:12;100844.41;;;15.21;54.78
22206;BME280;11272;50.104;8.754;2023-05-20T03:19:38;100843.56;;;15.18;55.11
22206;BME280;11272;50.104;8.754;2023-05-20T03:22:04;100828.59;;;15.13;55.09
22206;BME280;11272;50.104;8.754;2023-05-20T03:24:31;100834.09;;;15.08;55.08
22206;BME280;11272;50.104;8.754;2023-05-20T03:26:56;100836.06;;;15.03;55.37
22206;BME280;11272;50.104;8.754;2023-05-20T03:29:22;100827.31;;;14.98;55.42
22206;BME280;11272;50.104;8.754;2023-05-20T03:31:48;100834.50;;;14.96;55.59
22206;BME280;11272;50.104;8.754;2023-05-20T03:34:13;100833.75;;;14.93;55.56
22206;BME280;11272;50.104;8.754;2023-05-20T03:36:39;100825.72;;;14.93;55.89
22206;BME280;11272;50.104;8.754;2023-05-20T03:39:05;100831.03;;;14.94;56.02
22206;BME280;11272;50.104;8.754;2023-05-20T03:41:32;100830.09;;;14.95;55.94
22206;BME280;11272;50.104;8.754;2023-05-20T03:43:57;100832.72;;;14.97;56.01
22206;BME280;11272;50.104;8.754;2023-05-20T03:46:23;100836.19;;;15.00;56.52
22206;BME280;11272;50.104;8.754;2023-05-20T03:48:49;100835.16;;;15.04;56.02
22206;BME280;11272;50.104;8.754;2023-05-20T03:51:15;100839.56;;;15.05;56.00
22206;BME280;11272;50.104;8.754;2023-05-20T03:53:40;100839.56;;;15.05;56.40
22206;BME280;11272;50.104;8.754;2023-05-20T03:56:06;100841.38;;;15.05;56.24
22206;BME280;11272;50.104;8.754;2023-05-20T03:58:32;100843.00;;;15.09;56.45
22206;BME280;11272;50.104;8.754;2023-05-20T04:00:58;100845.53;;;15.13;56.31
22206;BME280;11272;50.104;8.754;2023-05-20T04:03:26;100847.13;;;15.19;56.62
22206;BME280;11272;50.104;8.754;2023-05-20T04:05:53;100849.63;;;15.24;56.28
22206;BME280;11272;50.104;8.754;2023-05-20T04:08:21;100840.53;;;15.29;56.78
22206;BME280;11272;50.104;8.754;2023-05-20T04:10:47;100844.00;;;15.33;56.76
22206;BME280;11272;50.104;8.754;2023-05-20T04:13:13;100845.72;;;15.34;56.27
22206;BME280;11272;50.104;8.754;2023-05-20T04:15:39;100845.63;;;15.37;56.33
22206;BME280;11272;50.104;8.754;2023-05-20T04:18:05;100844.75;;;15.36;56.18
22206;BME280;11272;50.104;8.754;2023-05-20T04:20:31;100843.88;;;15.36;56.52
22206;BME280;11272;50.104;8.754;2023-05-20T04:22:57;100846.56;;;15.36;56.38
22206;BME280;11272;50.104;8.754;2023-05-20T04:25:23;100846.41;;;15.40;56.92
22206;BME280;11272;50.104;8.754;2023-05-20T04:27:50;100844.44;;;15.45;56.51
22206;BME280;11272;50.104;8.754;2023-05-20T04:30:18;100842.53;;;15.49;56.36
22206;BME280;11272;50.104;8.754;2023-05-20T04:32:46;100850.47;;;15.52;56.43
22206;BME280;11272;50.104;8.754;2023-05-20T04:35:13;100852.25;;;15.53;56.66
22206;BME280;11272;50.104;8.754;2023-05-20T04:37:41;100846.84;;;15.54;56.46
22206;BME280;11272;50.104;8.754;2023-05-20T04:40:10;100849.34;;;15.59;56.71
22206;BME280;11272;50.104;8.754;2023-05-20T04:42:36;100847.44;;;15.63;56.65
22206;BME280;11272;50.104;8.754;2023-05-20T04:45:03;100853.53;;;15.66;56.81
22206;BME280;11272;50.104;8.754;2023-05-20T04:47:31;100844.50;;;15.70;56.63
22206;BME280;11272;50.104;8.754;2023-05-20T04:50:05;100839.75;;;15.77;56.83
22206;BME280;11272;50.104;8.754;2023-05-20T04:52:33;100844.84;;;15.84;56.38
22206;BME280;11272;50.104;8.754;2023-05-20T04:54:58;100835.69;;;15.91;56.43
22206;BME280;11272;50.104;8.754;2023-05-20T04:57:26;100847.84;;;16.00;56.23
22206;BME280;11272;50.104;8.754;2023-05-20T04:59:51;100834.22;;;16.06;56.33
22206;BME280;11272;50.104;8.754;2023-05-20T05:02:17;100832.19;;;16.13;56.33
22206;BME280;11272;50.104;8.754;2023-05-20T05:04:44;100835.69;;;16.15;56.14
22206;BME280;11272;50.104;8.754;2023-05-20T05:07:10;100835.50;;;16.19;56.43
22206;BME280;11272;50.104;8.754;2023-05-20T05:09:36;100831.66;;;16.26;56.25
22206;BME280;11272;50.104;8.754;2023-05-20T05:12:02;100825.13;;;16.33;56.29
22206;BME280;11272;50.104;8.754;2023-05-20T05:14:27;100831.94;;;16.42;56.13
22206;BME280;11272;50.104;8.754;2023-05-20T05:16:53;100824.41;;;16.52;55.87
22206;BME280;11272;50.104;8.754;2023-05-20T05:19:18;100820.53;;;16.60;55.81
22206;BME280;11272;50.104;8.754;2023-05-20T05:21:46;100815.84;;;16.65;55.92
22206;BME280;11272;50.104;8.754;2023-05-20T05:24:13;100808.59;;;16.67;55.69
22206;BME280;11272;50.104;8.754;2023-05-20T05:26:39;100810.31;;;16.70;55.58
22206;BME280;11272;50.104;8.754;2023-05-20T05:29:04;100811.97;;;16.72;55.61
22206;BME280;11272;50.104;8.754;2023-05-20T05:31:31;100814.53;;;16.75;55.61
22206;BME280;11272;50.104;8.754;2023-05-20T05:33:57;100814.34;;;16.80;55.73
22206;BME280;11272;50.104;8.754;2023-05-20T05:36:23;100814.22;;;16.83;55.60
22206;BME280;11272;50.104;8.754;2023-05-20T05:38:50;100810.53;;;16.86;55.52
22206;BME280;11272;50.104;8.754;2023-05-20T05:41:16;100803.31;;;16.88;55.56
22206;BME280;11272;50.104;8.754;2023-05-20T05:43:42;100803.19;;;16.91;55.48
22206;BME280;11272;50.104;8.754;2023-05-20T05:46:07;100807.72;;;16.89;55.49
22206;BME280;11272;50.104;8.754;2023-05-20T05:48:35;100811.19;;;16.92;55.66
22206;BME280;11272;50.104;8.754;2023-05-20T05:51:01;100808.34;;;16.95;55.50
22206;BME280;11272;50.104;8.754;2023-05-20T05:53:26;100810.97;;;16.97;55.30
22206;BME280;11272;50.104;8.754;2023-05-20T05:55:52;100814.59;;;16.96;55.46
22206;BME280;11272;50.104;8.754;2023-05-20T05:58:18;100807.22;;;17.01;55.36
22206;BME280;11272;50.104;8.754;2023-05-20T06:00:44;100809.66;;;17.07;55.49
22206;BME280;11272;50.104;8.754;2023-05-20T06:03:10;100813.06;;;17.10;55.24
22206;BME280;11272;50.104;8.754;2023-05-20T06:05:36;100819.25;;;17.12;55.56
22206;BME280;11272;50.104;8.754;2023-05-20T06:08:02;100811.16;;;17.14;55.33
22206;BME280;11272;50.104;8.754;2023-05-20T06:10:29;100816.31;;;17.18;55.10
22206;BME280;11272;50.104;8.754;2023-05-20T06:12:55;100809.72;;;17.25;55.22
22206;BME280;11272;50.104;8.754;2023-05-20T06:15:21;100812.16;;;17.32;55.06
22206;BME280;11272;50.104;8.754;2023-05-20T06:17:46;100803.91;;;17.36;55.06
22206;BME280;11272;50.104;8.754;2023-05-20T06:20:13;100803.91;;;17.36;55.18
22206;BME280;11272;50.104;8.754;2023-05-20T06:22:39;100803.06;;;17.36;55.14
22206;BME280;11272;50.104;8.754;2023-05-20T06:25:05;100804.72;;;17.38;55.13
22206;BME280;11272;50.104;8.754;2023-05-20T06:27:33;100807.13;;;17.44;55.16
22206;BME280;11272;50.104;8.754;2023-05-20T06:29:59;100810.66;;;17.46;55.14
22206;BME280;11272;50.104;8.754;2023-05-20T06:32:25;100808.75;;;17.48;54.68
22206;BME280;11272;50.104;8.754;2023-05-20T06:34:52;100810.50;;;17.49;55.13
22206;BME280;11272;50.104;8.754;2023-05-20T06:37:17;100804.97;;;17.52;55.00
22206;BME280;11272;50.104;8.754;2023-05-20T06:39:43;100803.75;;;17.61;55.00
22206;BME280;11272;50.104;8.754;2023-05-20T06:42:08;100798.91;;;17.69;54.90
22206;BME280;11272;50.104;8.754;2023-05-20T06:44:35;100791.50;;;17.74;54.70
22206;BME280;11272;50.104;8.754;2023-05-20T06:47:14;100794.06;;;17.77;54.84
22206;BME280;11272;50.104;8.754;2023-05-20T06:49:42;100791.44;;;17.76;54.56
22206;BME280;11272;50.104;8.754;2023-05-20T06:52:07;100794.06;;;17.77;54.59
22206;BME280;11272;50.104;8.754;2023-05-20T06:54:39;100785.72;;;17.83;54.54
22206;BME280;11272;50.104;8.754;2023-05-20T06:57:07;100790.88;;;17.88;54.44
22206;BME280;11272;50.104;8.754;2023-05-20T06:59:34;100788.88;;;17.93;54.44
22206;BME280;11272;50.104;8.754;2023-05-20T07:02:02;100786.84;;;17.98;54.38
22206;BME280;11272;50.104;8.754;2023-05-20T07:04:27;100789.25;;;18.04;54.12
22206;BME280;11272;50.104;8.754;2023-05-20T07:06:53;100793.69;;;18.05;54.19
22206;BME280;11272;50.104;8.754;2023-05-20T07:09:18;100788.16;;;18.08;54.00
22206;BME280;11272;50.104;8.754;2023-05-20T07:11:45;100786.13;;;18.13;54.13
22206;BME280;11272;50.104;8.754;2023-05-20T07:14:10;100789.34;;;18.21;54.15
22206;BME280;11272;50.104;8.754;2023-05-20T07:16:36;100783.06;;;18.39;53.98
22206;BME280;11272;50.104;8.754;2023-05-20T07:19:02;100782.06;;;18.61;53.89
22206;BME280;11272;50.104;8.754;2023-05-20T07:21:28;100777.66;;;18.77;53.77
22206;BME280;11272;50.104;8.754;2023-05-20T07:24:00;100784.53;;;19.01;53.39
22206;BME280;11272;50.104;8.754;2023-05-20T07:26:26;100779.34;;;19.50;53.20
22206;BME280;11272;50.104;8.754;2023-05-20T07:28:51;100769.34;;;19.85;52.56
22206;BME280;11272;50.104;8.754;2023-05-20T07:31:17;100772.03;;;20.17;52.08
22206;BME280;11272;50.104;8.754;2023-05-20T07:33:46;100768.94;;;20.41;51.41
22206;BME280;11272;50.104;8.754;2023-05-20T07:36:12;100757.00;;;20.61;50.68
22206;BME280;11272;50.104;8.754;2023-05-20T07:38:40;100764.22;;;20.76;50.37
22206;BME280;11272;50.104;8.754;2023-05-20T07:41:07;100747.91;;;20.93;49.79
22206;BME280;11272;50.104;8.754;2023-05-20T07:43:33;100739.16;;;21.04;49.52
22206;BME280;11272;50.104;8.754;2023-05-20T07:46:01;100739.22;;;21.18;49.17
22206;BME280;11272;50.104;8.754;2023-05-20T07:48:27;100738.31;;;21.33;48.75
22206;BME280;11272;50.104;8.754;2023-05-20T07:50:52;100733.09;;;21.44;48.36
22206;BME280;11272;50.104;8.754;2023-05-20T07:53:18;100723.16;;;21.59;48.09
22206;BME280;11272;50.104;8.754;2023-05-20T07:55:44;100720.19;;;21.92;47.70
22206;BME280;11272;50.104;8.754;2023-05-20T07:58:10;100719.59;;;22.29;47.32
22206;BME280;11272;50.104;8.754;2023-05-20T08:00:36;100714.94;;;22.72;46.84
22206;BME280;11272;50.104;8.754;2023-05-20T08:03:08;100722.28;;;23.09;46.10
22206;BME280;11272;50.104;8.754;2023-05-20T08:05:47;100723.00;;;23.38;45.73
22206;BME280;11272;50.104;8.754;2023-05-20T08:08:13;100727.59;;;23.63;45.33
22206;BME280;11272;50.104;8.754;2023-05-20T08:10:53;100728.34;;;23.78;44.43
22206;BME280;11272;50.104;8.754;2023-05-20T08:13:22;100723.97;;;23.88;44.08
22206;BME280;11272;50.104;8.754;2023-05-20T08:15:48;100721.63;;;23.71;43.58
22206;BME280;11272;50.104;8.754;2023-05-20T08:18:14;100726.94;;;23.47;43.43
22206;BME280;11272;50.104;8.754;2023-05-20T08:20:40;100736.63;;;23.24;43.51
22206;BME280;11272;50.104;8.754;2023-05-20T08:23:07;100727.25;;;23.03;43.53
22206;BME280;11272;50.104;8.754;2023-05-20T08:25:32;100726.56;;;22.87;43.70
22206;BME280;11272;50.104;8.754;2023-05-20T08:28:00;100726.22;;;22.79;43.85
22206;BME280;11272;50.104;8.754;2023-05-20T08:30:28;100720.84;;;22.64;43.94
22206;BME280;11272;50.104;8.754;2023-05-20T08:32:55;100716.25;;;22.52;44.16
22206;BME280;11272;50.104;8.754;2023-05-20T08:35:24;100714.81;;;22.47;44.42
22206;BME280;11272;50.104;8.754;2023-05-20T08:37:49;100699.75;;;22.70;44.66
22206;BME280;11272;50.104;8.754;2023-05-20T08:40:16;100710.19;;;23.28;44.33
22206;BME280;11272;50.104;8.754;2023-05-20T08:42:42;100693.03;;;24.03;43.50
22206;BME280;11272;50.104;8.754;2023-05-20T08:45:11;100700.19;;;24.77;42.79
22206;BME280;11272;50.104;8.754;2023-05-20T08:47:41;100698.13;;;25.62;41.77
22206;BME280;11272;50.104;8.754;2023-05-20T08:50:08;100700.69;;;26.19;40.98
22206;BME280;11272;50.104;8.754;2023-05-20T08:52:36;100700.75;;;26.62;40.13
22206;BME280;11272;50.104;8.754;2023-05-20T08:55:03;100698.69;;;26.86;39.21
22206;BME280;11272;50.104;8.754;2023-05-20T08:57:32;100700.25;;;27.00;38.50
22206;BME280;11272;50.104;8.754;2023-05-20T08:59:58;100703.75;;;27.02;38.21
22206;BME280;11272;50.104;8.754;2023-05-20T09:02:24;100698.66;;;26.65;37.99
22206;BME280;11272;50.104;8.754;2023-05-20T09:04:51;100697.81;;;26.86;38.15
22206;BME280;11272;50.104;8.754;2023-05-20T09:07:27;100701.19;;;27.31;37.67
22206;BME280;11272;50.104;8.754;2023-05-20T09:09:53;100701.59;;;27.26;37.42
22206;BME280;11272;50.104;8.754;2023-05-20T09:12:20;100688.03;;;26.83;37.32
22206;BME280;11272;50.104;8.754;2023-05-20T09:14:45;100692.78;;;26.38;37.58
22206;BME280;11272;50.104;8.754;2023-05-20T09:17:12;100695.03;;;26.11;37.83
22206;BME280;11272;50.104;8.754;2023-05-20T09:19:37;100697.75;;;26.11;37.97
22206;BME280;11272;50.104;8.754;2023-05-20T09:22:03;100687.84;;;25.98;37.88
22206;BME280;11272;50.104;8.754;2023-05-20T09:24:29;100694.53;;;25.83;37.89
22206;BME280;11272;50.104;8.754;2023-05-20T09:26:55;100689.97;;;25.73;38.27
22206;BME280;11272;50.104;8.754;2023-05-20T09:29:22;100692.94;;;25.59;38.24
22206;BME280;11272;50.104;8.754;2023-05-20T09:31:48;100681.78;;;25.62;38.57
22206;BME280;11272;50.104;8.754;2023-05-20T09:34:15;100688.34;;;25.92;38.92
22206;BME280;11272;50.104;8.754;2023-05-20T09:36:42;100677.88;;;26.53;38.52
22206;BME280;11272;50.104;8.754;2023-05-20T09:39:13;100684.66;;;27.22;37.96
22206;BME280;11272;50.104;8.754;2023-05-20T09:41:56;100682.66;;;27.45;37.48
22206;BME280;11272;50.104;8.754;2023-05-20T09:44:23;100681.19;;;27.20;37.00
22206;BME280;11272;50.104;8.754;2023-05-20T09:46:49;100688.09;;;27.24;37.24
22206;BME280;11272;50.104;8.754;2023-05-20T09:49:15;100680.25;;;27.52;36.86
22206;BME280;11272;50.104;8.754;2023-05-20T09:51:42;100684.00;;;27.51;36.42
22206;BME280;11272;50.104;8.754;2023-05-20T09:54:10;100675.72;;;27.20;36.29
22206;BME280;11272;50.104;8.754;2023-05-20T09:56:36;100683.38;;;27.06;36.42
22206;BME280;11272;50.104;8.754;2023-05-20T09:59:04;100681.09;;;26.90;36.33
22206;BME280;11272;50.104;8.754;2023-05-20T10:01:30;100676.19;;;26.73;36.65
22206;BME280;11272;50.104;8.754;2023-05-20T10:03:56;100678.50;;;26.77;36.62
22206;BME280;11272;50.104;8.754;2023-05-20T10:06:35;100677.41;;;27.12;36.52
22206;BME280;11272;50.104;8.754;2023-05-20T10:15:12;100672.44;;;27.68;36.16
22206;BME280;11272;50.104;8.754;2023-05-20T10:20:14;100677.94;;;28.96;34.88
22206;BME280;11272;50.104;8.754;2023-05-20T10:22:40;100663.81;;;29.49;34.16
22206;BME280;11272;50.104;8.754;2023-05-20T10:25:11;100661.72;;;30.07;33.25
22206;BME280;11272;50.104;8.754;2023-05-20T10:27:44;100652.16;;;30.56;33.15
22206;BME280;11272;50.104;8.754;2023-05-20T10:30:18;100651.63;;;31.06;32.27
22206;BME280;11272;50.104;8.754;2023-05-20T10:33:04;100653.88;;;31.28;31.96
22206;BME280;11272;50.104;8.754;2023-05-20T10:35:31;100650.81;;;31.57;31.36
22206;BME280;11272;50.104;8.754;2023-05-20T10:38:09;100639.88;;;31.99;30.50
22206;BME280;11272;50.104;8.754;2023-05-20T10:40:35;100642.22;;;32.28;29.79
22206;BME280;11272;50.104;8.754;2023-05-20T10:43:11;100635.66;;;32.71;30.10
22206;BME280;11272;50.104;8.754;2023-05-20T10:45:53;100623.28;;;32.99;29.29
22206;BME280;11272;50.104;8.754;2023-05-20T10:48:30;100628.00;;;32.48;29.09
22206;BME280;11272;50.104;8.754;2023-05-20T10:51:00;100628.72;;;32.50;29.04
22206;BME280;11272;50.104;8.754;2023-05-20T10:53:37;100638.75;;;32.68;29.06
22206;BME280;11272;50.104;8.754;2023-05-20T10:56:03;100628.06;;;32.97;28.47
22206;BME280;11272;50.104;8.754;2023-05-20T10:58:36;100631.53;;;33.23;28.26
22206;BME280;11272;50.104;8.754;2023-05-20T11:01:02;100615.53;;;33.03;28.13
22206;BME280;11272;50.104;8.754;2023-05-20T11:03:28;100628.75;;;33.07;27.94
22206;BME280;11272;50.104;8.754;2023-05-20T11:05:54;100623.78;;;33.11;27.76
22206;BME280;11272;50.104;8.754;2023-05-20T11:08:20;100615.00;;;33.07;27.54
22206;BME280;11272;50.104;8.754;2023-05-20T11:10:46;100610.19;;;33.33;27.72
22206;BME280;11272;50.104;8.754;2023-05-20T11:13:12;100612.13;;;33.80;27.24
22206;BME280;11272;50.104;8.754;2023-05-20T11:15:38;100611.75;;;33.91;26.76
22206;BME280;11272;50.104;8.754;2023-05-20T11:18:04;100618.84;;;33.86;26.92
22206;BME280;11272;50.104;8.754;2023-05-20T11:20:30;100610.94;;;33.74;26.58
22206;BME280;11272;50.104;8.754;2023-05-20T11:22:59;100608.13;;;33.03;26.85
22206;BME280;11272;50.104;8.754;2023-05-20T11:25:25;100607.03;;;32.31;27.73
22206;BME280;11272;50.104;8.754;2023-05-20T11:27:53;100608.50;;;31.67;28.06
22206;BME280;11272;50.104;8.754;2023-05-20T11:30:19;100605.31;;;31.03;28.20
22206;BME280;11272;50.104;8.754;2023-05-20T11:33:03;100605.31;;;30.67;28.83
22206;BME280;11272;50.104;8.754;2023-05-20T11:35:30;100604.00;;;30.71;29.19
22206;BME280;11272;50.104;8.754;2023-05-20T11:38:00;100601.81;;;31.01;29.55
22206;BME280;11272;50.104;8.754;2023-05-20T11:40:26;100601.31;;;31.49;29.29
22206;BME280;11272;50.104;8.754;2023-05-20T11:42:56;100603.50;;;32.05;28.57
22206;BME280;11272;50.104;8.754;2023-05-20T11:45:22;100597.72;;;32.24;28.14
22206;BME280;11272;50.104;8.754;2023-05-20T11:48:02;100592.81;;;31.94;28.25
22206;BME280;11272;50.104;8.754;2023-05-20T11:50:33;100605.84;;;31.06;28.45
22206;BME280;11272;50.104;8.754;2023-05-20T11:53:02;100603.72;;;30.11;29.75
22206;BME280;11272;50.104;8.754;2023-05-20T11:55:30;100588.41;;;28.98;30.72
22206;BME280;11272;50.104;8.754;2023-05-20T11:57:57;100585.97;;;28.66;31.65
22206;BME280;11272;50.104;8.754;2023-05-20T12:00:22;100588.63;;;29.43;31.21
22206;BME280;11272;50.104;8.754;2023-05-20T12:02:48;100591.34;;;30.25;30.27
22206;BME280;11272;50.104;8.754;2023-05-20T12:05:14;100581.47;;;30.85;29.89
22206;BME280;11272;50.104;8.754;2023-05-20T12:07:40;100574.72;;;31.49;29.56
22206;BME280;11272;50.104;8.754;2023-05-20T12:10:07;100582.16;;;31.99;28.73
22206;BME280;11272;50.104;8.754;2023-05-20T12:12:32;100573.28;;;32.13;28.48
22206;BME280;11272;50.104;8.754;2023-05-20T12:14:58;100579.50;;;31.73;28.32
22206;BME280;11272;50.104;8.754;2023-05-20T12:17:23;100579.41;;;31.31;28.86
22206;BME280;11272;50.104;8.754;2023-05-20T12:19:49;100575.38;;;31.43;28.98
22206;BME280;11272;50.104;8.754;2023-05-20T12:22:14;100570.09;;;31.84;28.58
22206;BME280;11272;50.104;8.754;2023-05-20T12:24:40;100569.88;;;32.19;27.93
22206;BME280;11272;50.104;8.754;2023-05-20T12:27:06;100564.25;;;32.53;27.96
22206;BME280;11272;50.104;8.754;2023-05-20T12:29:32;100568.22;;;32.91;27.69
22206;BME280;11272;50.104;8.754;2023-05-20T12:31:58;100570.28;;;33.05;27.36
22206;BME280;11272;50.104;8.754;2023-05-20T12:34:24;100568.84;;;33.50;27.35
22206;BME280;11272;50.104;8.754;2023-05-20T12:36:50;100565.59;;;33.85;26.48
22206;BME280;11272;50.104;8.754;2023-05-20T12:39:17;100555.59;;;33.84;26.39
22206;BME280;11272;50.104;8.754;2023-05-20T12:41:44;100564.81;;;33.99;26.26
22206;BME280;11272;50.104;8.754;2023-05-20T12:44:09;100560.09;;;33.85;26.13
22206;BME280;11272;50.104;8.754;2023-05-20T12:46:36;100554.56;;;33.38;26.44
22206;BME280;11272;50.104;8.754;2023-05-20T12:49:02;100553.94;;;33.04;26.69
22206;BME280;11272;50.104;8.754;2023-05-20T12:51:28;100543.78;;;33.12;26.54
22206;BME280;11272;50.104;8.754;2023-05-20T12:53:53;100546.84;;;33.33;26.60
22206;BME280;11272;50.104;8.754;2023-05-20T12:56:19;100546.38;;;33.61;26.19
22206;BME280;11272;50.104;8.754;2023-05-20T12:58:45;100542.59;;;33.62;26.23